Time;durP1;ratioP1;P1;durP2;ratioP2;P2;SDS_P1;SDS_P2;PMS_P1;PMS_P2;Temp;Humidity;BMP_temperature;BMP_pressure;BME280_temperature;BME280_humidity;BME280_pressure;Samples;Min_cycle;Max_cycle;Signal;HPM_P1;HPM_P2
2021/01/08 00:02:02;;;;;;;7.65;6.57;;;0.10;99.90;;;;;;4909069;29;20714;-73
2021/01/08 00:04:28;;;;;;;8.60;6.85;;;0.10;99.90;;;;;;4910568;29;20226;-74
2021/01/08 00:06:55;;;;;;;8.75;5.75;;;0.10;99.90;;;;;;4910551;29;20217;-74
2021/01/08 00:09:21;;;;;;;9.23;6.13;;;0.00;99.90;;;;;;4910291;29;20241;-74
2021/01/08 00:11:53;;;;;;;10.00;7.22;;;0.10;99.90;;;;;;4909819;29;20911;-74
2021/01/08 00:14:19;;;;;;;10.35;7.05;;;0.10;99.90;;;;;;4910462;29;20230;-74
2021/01/08 00:16:45;;;;;;;9.43;6.63;;;0.10;99.90;;;;;;4910308;29;20210;-74
2021/01/08 00:19:13;;;;;;;10.20;7.35;;;0.10;99.90;;;;;;4909853;29;20604;-73
2021/01/08 00:21:42;;;;;;;9.43;6.75;;;0.10;99.90;;;;;;4909836;29;20685;-74
2021/01/08 00:24:09;;;;;;;10.07;7.38;;;0.10;99.90;;;;;;4909655;29;20321;-74
2021/01/08 00:26:35;;;;;;;11.10;7.68;;;0.10;99.90;;;;;;4910069;29;20265;-74
2021/01/08 00:29:01;;;;;;;11.70;7.22;;;0.10;99.90;;;;;;4909714;29;20197;-74
2021/01/08 00:31:35;;;;;;;8.60;6.90;;;0.10;99.90;;;;;;4910214;29;20209;-74
2021/01/08 00:34:02;;;;;;;11.40;7.25;;;0.10;99.90;;;;;;4909920;29;20229;-74
2021/01/08 00:36:29;;;;;;;9.30;6.18;;;0.10;99.90;;;;;;4909595;29;20210;-74
2021/01/08 00:38:55;;;;;;;7.63;6.15;;;0.10;99.90;;;;;;4909708;29;20263;-74
2021/01/08 00:41:28;;;;;;;9.80;7.35;;;0.10;99.90;;;;;;4909845;29;20209;-74
2021/01/08 00:43:54;;;;;;;8.23;6.10;;;0.20;99.90;;;;;;4909373;29;20305;-74
2021/01/08 00:46:20;;;;;;;11.43;6.55;;;0.10;99.90;;;;;;4909869;29;20206;-74
2021/01/08 00:48:47;;;;;;;8.80;7.00;;;0.10;99.90;;;;;;4909376;29;20198;-74
2021/01/08 00:51:14;;;;;;;10.50;7.22;;;0.10;99.90;;;;;;4909735;29;20767;-74
2021/01/08 00:53:41;;;;;;;9.48;7.10;;;0.10;99.90;;;;;;4909335;29;20233;-73
2021/01/08 00:56:16;;;;;;;10.90;6.57;;;0.10;99.90;;;;;;4909714;29;20205;-74
2021/01/08 00:58:43;;;;;;;10.55;6.47;;;0.10;99.90;;;;;;4909655;29;20312;-74
2021/01/08 01:01:09;;;;;;;10.40;6.18;;;0.10;99.90;;;;;;4909553;29;20273;-74
2021/01/08 01:03:35;;;;;;;10.35;6.57;;;0.10;99.90;;;;;;4911474;29;20214;-74
2021/01/08 01:06:01;;;;;;;8.23;5.68;;;0.10;99.90;;;;;;4912239;29;20216;-74
2021/01/08 01:08:28;;;;;;;6.68;5.50;;;0.10;99.90;;;;;;4910914;29;20237;-73
2021/01/08 01:10:55;;;;;;;9.60;6.22;;;0.10;99.90;;;;;;4912356;29;20205;-74
2021/01/08 01:13:21;;;;;;;8.23;6.43;;;0.10;99.90;;;;;;4911605;29;20205;-74
2021/01/08 01:15:48;;;;;;;7.10;5.50;;;0.20;99.90;;;;;;4912567;29;20202;-73
2021/01/08 01:18:14;;;;;;;8.98;5.88;;;0.20;99.90;;;;;;4912638;29;20231;-74
2021/01/08 01:20:40;;;;;;;8.63;5.72;;;0.20;99.90;;;;;;4913129;29;20214;-74
2021/01/08 01:23:07;;;;;;;10.75;6.05;;;0.20;99.90;;;;;;4912382;29;20674;-74
2021/01/08 01:25:34;;;;;;;9.05;6.05;;;0.20;99.90;;;;;;4912882;29;20248;-74
2021/01/08 01:28:01;;;;;;;8.80;5.97;;;0.20;99.90;;;;;;4912577;29;20576;-74
2021/01/08 01:30:27;;;;;;;7.40;5.78;;;0.10;99.90;;;;;;4913231;29;20265;-73
2021/01/08 01:32:54;;;;;;;7.22;6.10;;;0.10;99.90;;;;;;4912422;29;20589;-74
2021/01/08 01:35:20;;;;;;;8.98;6.32;;;0.10;99.90;;;;;;4913006;29;20281;-74
2021/01/08 01:37:46;;;;;;;9.95;5.70;;;0.00;99.90;;;;;;4912745;29;20210;-74
2021/01/08 01:40:13;;;;;;;9.57;5.65;;;0.00;99.90;;;;;;4912612;29;20269;-74
2021/01/08 01:42:39;;;;;;;8.43;5.70;;;-0.10;99.90;;;;;;4912505;29;20221;-74
2021/01/08 01:45:08;;;;;;;8.98;6.40;;;-0.20;99.90;;;;;;4912582;29;20229;-74
2021/01/08 01:47:34;;;;;;;8.80;5.93;;;-0.20;99.90;;;;;;4912708;29;20670;-74
2021/01/08 01:50:01;;;;;;;6.18;5.32;;;-0.30;99.90;;;;;;4912231;29;20208;-74
2021/01/08 01:52:27;;;;;;;8.68;5.97;;;-0.30;99.90;;;;;;4912389;29;20213;-74
2021/01/08 01:54:53;;;;;;;8.20;6.00;;;-0.40;99.90;;;;;;4912433;29;20236;-74
2021/01/08 01:57:19;;;;;;;7.20;5.20;;;-0.50;99.90;;;;;;4912731;29;20206;-74
2021/01/08 01:59:46;;;;;;;5.82;5.10;;;-0.60;99.90;;;;;;4911048;29;20229;-74
2021/01/08 02:02:20;;;;;;;6.70;5.10;;;-0.60;99.90;;;;;;4909719;29;20212;-74
2021/01/08 02:04:48;;;;;;;8.00;5.57;;;-0.70;99.90;;;;;;4910731;29;20232;-74
2021/01/08 02:07:15;;;;;;;11.57;5.95;;;-0.80;99.90;;;;;;4912025;29;20268;-74
2021/01/08 02:09:42;;;;;;;9.18;5.72;;;-0.90;99.90;;;;;;4912126;29;20295;-75
2021/01/08 02:12:09;;;;;;;7.45;5.80;;;-0.90;99.90;;;;;;4911841;29;20214;-73
2021/01/08 02:14:36;;;;;;;9.43;6.28;;;-1.00;99.90;;;;;;4912376;29;20603;-74
2021/01/08 02:17:03;;;;;;;8.00;5.50;;;-1.00;99.90;;;;;;4912351;29;20213;-74
2021/01/08 02:19:39;;;;;;;10.40;6.97;;;-1.10;99.90;;;;;;4912454;29;20238;-74
2021/01/08 02:22:13;;;;;;;7.32;5.53;;;-1.10;99.90;;;;;;4911815;29;20697;-74
2021/01/08 02:24:44;;;;;;;9.60;6.28;;;-1.20;99.90;;;;;;4912435;29;20266;-74
2021/01/08 02:27:12;;;;;;;7.55;5.63;;;-1.20;99.90;;;;;;4915847;29;20213;-74
2021/01/08 02:29:39;;;;;;;8.85;6.00;;;-1.20;99.90;;;;;;4915897;29;20689;-74
2021/01/08 02:32:05;;;;;;;8.68;5.82;;;-1.20;99.90;;;;;;4990661;23;20204;-71
2021/01/08 02:34:32;;;;;;;7.70;5.70;;;-1.30;99.90;;;;;;4991858;28;20592;-71
2021/01/08 02:36:59;;;;;;;9.43;6.55;;;-1.40;99.90;;;;;;4992503;28;20203;-71
2021/01/08 02:39:26;;;;;;;8.10;6.05;;;-1.40;99.90;;;;;;4992249;28;20710;-71
2021/01/08 02:41:55;;;;;;;7.13;5.45;;;-1.40;99.90;;;;;;4991946;28;20214;-71
2021/01/08 02:44:23;;;;;;;8.40;5.45;;;-1.40;99.90;;;;;;4992329;28;20222;-71
2021/01/08 02:46:50;;;;;;;8.18;6.50;;;-1.40;99.90;;;;;;4992258;28;20210;-70
2021/01/08 02:49:16;;;;;;;7.80;5.28;;;-1.30;99.90;;;;;;4992125;28;20203;-71
2021/01/08 02:51:42;;;;;;;10.32;6.60;;;-1.30;99.90;;;;;;4991479;28;20243;-70
2021/01/08 02:54:10;;;;;;;9.85;5.82;;;-1.30;99.90;;;;;;4992102;28;20223;-70
2021/01/08 02:56:40;;;;;;;7.40;5.53;;;-1.30;99.90;;;;;;4992638;28;20207;-69
2021/01/08 02:59:09;;;;;;;10.05;6.43;;;-1.30;99.90;;;;;;4991838;28;20230;-69
2021/01/08 03:01:37;;;;;;;10.23;6.00;;;-1.30;99.90;;;;;;4992079;28;20207;-69
2021/01/08 03:04:04;;;;;;;8.50;6.75;;;-1.20;99.90;;;;;;4991662;28;20223;-70
2021/01/08 03:06:31;;;;;;;7.28;5.93;;;-1.20;99.90;;;;;;4992178;28;20234;-71
2021/01/08 03:08:58;;;;;;;7.53;5.85;;;-1.10;99.90;;;;;;4991799;28;20229;-71
2021/01/08 03:11:24;;;;;;;8.32;5.95;;;-1.00;99.90;;;;;;4992121;28;20206;-71
2021/01/08 03:13:52;;;;;;;8.43;5.85;;;-1.00;99.90;;;;;;4991656;28;20651;-71
2021/01/08 03:16:19;;;;;;;9.20;5.93;;;-0.90;99.90;;;;;;4991704;28;20214;-71
2021/01/08 03:18:46;;;;;;;10.52;6.55;;;-0.90;99.90;;;;;;4992009;28;20242;-70
2021/01/08 03:21:12;;;;;;;8.90;6.38;;;-0.80;99.90;;;;;;4991528;28;20706;-70
2021/01/08 03:23:39;;;;;;;9.90;6.43;;;-0.80;99.90;;;;;;4991379;28;20707;-70
2021/01/08 03:26:05;;;;;;;10.20;6.65;;;-0.80;99.90;;;;;;4991544;28;20214;-69
2021/01/08 03:28:31;;;;;;;8.10;6.20;;;-0.80;99.90;;;;;;4991544;28;20206;-71
2021/01/08 03:30:57;;;;;;;9.80;6.45;;;-0.70;99.90;;;;;;4991599;28;20691;-70
2021/01/08 03:33:24;;;;;;;8.25;7.25;;;-0.70;99.90;;;;;;4991006;28;20219;-71
2021/01/08 03:35:51;;;;;;;9.60;6.50;;;-0.70;99.90;;;;;;4991618;28;20777;-69
2021/01/08 03:38:17;;;;;;;8.80;6.28;;;-0.70;99.90;;;;;;4991242;28;20223;-71
2021/01/08 03:40:43;;;;;;;9.35;6.70;;;-0.70;99.90;;;;;;4991077;28;20214;-72
2021/01/08 03:43:10;;;;;;;9.48;6.38;;;-0.60;99.90;;;;;;4990880;28;20265;-71
2021/01/08 03:45:37;;;;;;;9.75;7.40;;;-0.60;99.90;;;;;;4991476;28;20230;-70
2021/01/08 03:48:04;;;;;;;6.88;5.60;;;-0.60;99.90;;;;;;4991313;28;20203;-71
2021/01/08 03:50:30;;;;;;;9.65;5.55;;;-0.60;99.90;;;;;;4991350;28;20203;-70
2021/01/08 03:52:57;;;;;;;8.07;5.50;;;-0.50;99.90;;;;;;4990454;28;20207;-69
2021/01/08 03:55:23;;;;;;;8.70;5.60;;;-0.50;99.90;;;;;;4991322;28;20589;-71
2021/01/08 03:57:50;;;;;;;7.45;5.45;;;-0.50;99.90;;;;;;4991527;28;20203;-71
2021/01/08 04:00:16;;;;;;;9.02;4.88;;;-0.50;99.90;;;;;;4991135;28;20207;-71
2021/01/08 04:02:43;;;;;;;8.35;6.20;;;-0.50;99.90;;;;;;4991255;28;20807;-72
2021/01/08 04:05:10;;;;;;;7.35;5.65;;;-0.50;99.90;;;;;;4991014;28;20227;-72
2021/01/08 04:07:36;;;;;;;8.48;6.50;;;-0.50;99.90;;;;;;5000252;28;20207;-69
2021/01/08 04:10:04;;;;;;;8.02;6.03;;;-0.50;99.90;;;;;;5007523;28;20199;-68
2021/01/08 04:12:30;;;;;;;7.72;6.20;;;-0.50;99.90;;;;;;5008797;28;20261;-71
2021/01/08 04:14:56;;;;;;;8.15;5.80;;;-0.50;99.90;;;;;;4996441;28;20230;-69
2021/01/08 04:17:22;;;;;;;9.10;6.18;;;-0.40;99.90;;;;;;4992883;28;20211;-71
2021/01/08 04:19:48;;;;;;;7.40;5.25;;;-0.40;99.90;;;;;;4990991;28;20703;-70
2021/01/08 04:22:15;;;;;;;9.60;6.68;;;-0.40;99.90;;;;;;4990361;28;20675;-71
2021/01/08 04:24:41;;;;;;;7.85;6.07;;;-0.40;99.90;;;;;;4990678;28;20226;-71
2021/01/08 04:27:08;;;;;;;7.13;5.22;;;-0.40;99.90;;;;;;4990496;28;20203;-71
2021/01/08 04:29:34;;;;;;;7.82;5.53;;;-0.40;99.90;;;;;;4990317;28;20199;-70
2021/01/08 04:32:01;;;;;;;7.00;5.20;;;-0.50;99.90;;;;;;4989668;28;20207;-70
2021/01/08 04:34:27;;;;;;;8.15;5.50;;;-0.50;99.90;;;;;;4990387;28;20230;-71
2021/01/08 04:36:53;;;;;;;9.40;6.13;;;-0.50;99.90;;;;;;4990583;28;20759;-70
2021/01/08 04:39:19;;;;;;;8.55;5.63;;;-0.50;99.90;;;;;;5000611;28;20218;-71
2021/01/08 04:41:46;;;;;;;6.97;5.30;;;-0.50;99.90;;;;;;5009392;28;20302;-70
2021/01/08 04:44:13;;;;;;;7.40;5.07;;;-0.50;99.90;;;;;;5008094;28;20747;-70
2021/01/08 04:46:43;;;;;;;7.55;5.85;;;-0.50;99.90;;;;;;5010249;28;20198;-71
2021/01/08 04:49:11;;;;;;;8.05;5.20;;;-0.50;99.90;;;;;;5009562;28;20199;-71
2021/01/08 04:51:38;;;;;;;7.25;5.47;;;-0.60;99.90;;;;;;5002776;28;20206;-70
2021/01/08 04:54:05;;;;;;;8.13;5.70;;;-0.50;99.90;;;;;;4989841;28;20227;-71
2021/01/08 04:56:37;;;;;;;7.00;5.40;;;-0.50;99.90;;;;;;4989771;28;20722;-71
2021/01/08 04:59:03;;;;;;;6.82;5.13;;;-0.50;99.90;;;;;;4989376;28;20246;-71
2021/01/08 05:01:30;;;;;;;6.80;5.00;;;-0.50;99.90;;;;;;4988402;28;20325;-71
2021/01/08 05:03:57;;;;;;;7.90;4.90;;;-0.50;99.90;;;;;;4987572;28;20227;-70
2021/01/08 05:06:24;;;;;;;7.40;5.70;;;-0.50;99.90;;;;;;4989860;28;20207;-71
2021/01/08 05:08:50;;;;;;;8.00;6.25;;;-0.60;99.90;;;;;;4989780;28;20195;-71
2021/01/08 05:11:23;;;;;;;7.00;4.82;;;-0.50;99.90;;;;;;4989275;28;20238;-70
2021/01/08 05:13:54;;;;;;;7.38;6.00;;;-0.50;99.90;;;;;;4989304;28;20234;-70
2021/01/08 05:16:22;;;;;;;7.60;5.80;;;-0.50;99.90;;;;;;4989699;28;20215;-70
2021/01/08 05:18:51;;;;;;;7.70;5.88;;;-0.60;99.90;;;;;;4989633;28;20227;-70
2021/01/08 05:21:18;;;;;;;8.63;5.40;;;-0.60;99.90;;;;;;4993182;28;20564;-69
2021/01/08 05:23:44;;;;;;;8.55;6.72;;;-0.60;99.90;;;;;;5008503;28;20265;-69
2021/01/08 05:26:13;;;;;;;8.18;6.18;;;-0.60;99.90;;;;;;5008980;28;20221;-69
2021/01/08 05:28:46;;;;;;;6.63;5.40;;;-0.60;99.90;;;;;;5008795;28;20292;-69
2021/01/08 05:31:12;;;;;;;7.30;5.68;;;-0.60;99.90;;;;;;5007899;28;21697;-70
2021/01/08 05:33:40;;;;;;;6.63;4.93;;;-0.70;99.90;;;;;;5008272;28;20230;-69
2021/01/08 05:36:08;;;;;;;7.00;5.22;;;-0.70;99.90;;;;;;5008492;28;20202;-70
2021/01/08 05:38:36;;;;;;;7.38;5.55;;;-0.70;99.90;;;;;;5008819;28;20229;-69
2021/01/08 05:41:03;;;;;;;7.00;5.00;;;-0.70;99.90;;;;;;5008680;28;20209;-69
2021/01/08 05:43:30;;;;;;;7.50;5.30;;;-0.70;99.90;;;;;;5008329;28;20573;-70
2021/01/08 05:46:14;;;;;;;6.95;5.25;;;-0.60;99.90;;;;;;5008217;28;20202;-70
2021/01/08 05:48:42;;;;;;;7.40;5.10;;;-0.60;99.90;;;;;;5008814;28;20682;-70
2021/01/08 05:51:14;;;;;;;7.57;5.50;;;-0.60;99.90;;;;;;5008475;28;20268;-69
2021/01/08 05:53:42;;;;;;;9.43;5.50;;;-0.60;99.90;;;;;;5008112;28;20775;-69
2021/01/08 05:56:13;;;;;;;5.20;4.53;;;-0.60;99.90;;;;;;5008016;28;20214;-69
2021/01/08 05:58:39;;;;;;;6.03;4.78;;;-0.60;99.90;;;;;;5008536;28;20222;-70
2021/01/08 06:01:06;;;;;;;7.00;5.63;;;-0.60;99.90;;;;;;5010682;28;20550;-69
2021/01/08 06:03:33;;;;;;;6.03;4.70;;;-0.60;99.90;;;;;;5012539;28;20257;-70
2021/01/08 06:06:01;;;;;;;7.25;4.40;;;-0.60;99.90;;;;;;5012485;28;20214;-69
2021/01/08 06:08:30;;;;;;;7.55;4.70;;;-0.60;99.90;;;;;;5011872;28;20198;-70
2021/01/08 06:10:57;;;;;;;6.75;4.68;;;-0.60;99.90;;;;;;4992481;28;20195;-70
2021/01/08 06:13:27;;;;;;;5.55;4.80;;;-0.60;99.90;;;;;;4992299;28;20204;-70
2021/01/08 06:15:55;;;;;;;5.20;4.63;;;-0.60;99.90;;;;;;4992945;28;21008;-70
2021/01/08 06:18:23;;;;;;;7.88;5.18;;;-0.50;99.90;;;;;;4992853;28;20235;-70
2021/01/08 06:20:51;;;;;;;5.93;4.32;;;-0.50;99.90;;;;;;4992627;28;20211;-70
2021/01/08 06:23:34;;;;;;;6.95;5.00;;;-0.50;99.90;;;;;;5010238;28;20207;-70
2021/01/08 06:26:01;;;;;;;6.70;5.00;;;-0.60;99.90;;;;;;5011994;28;20694;-70
2021/01/08 06:28:34;;;;;;;5.72;4.30;;;-0.50;99.90;;;;;;5012265;28;20202;-70
2021/01/08 06:31:05;;;;;;;5.85;4.32;;;-0.60;99.90;;;;;;5006973;28;20223;-70
2021/01/08 06:33:35;;;;;;;7.75;5.00;;;-0.60;99.90;;;;;;5003153;28;20628;-70
2021/01/08 06:36:18;;;;;;;5.70;4.65;;;-0.50;99.90;;;;;;5011931;28;20244;-69
2021/01/08 06:38:48;;;;;;;6.53;4.85;;;-0.60;99.90;;;;;;5011900;28;20218;-70
2021/01/08 06:41:16;;;;;;;10.13;5.32;;;-0.50;99.90;;;;;;5011626;28;20206;-69
2021/01/08 06:43:48;;;;;;;6.53;5.00;;;-0.50;99.90;;;;;;5011096;28;20301;-69
2021/01/08 06:46:29;;;;;;;7.25;4.22;;;-0.50;99.90;;;;;;5005805;28;20213;-69
2021/01/08 06:48:56;;;;;;;6.50;5.38;;;-0.50;99.90;;;;;;4992248;28;20572;-70
2021/01/08 06:51:28;;;;;;;7.07;4.82;;;-0.50;99.90;;;;;;4992042;28;20207;-70
2021/01/08 06:54:00;;;;;;;5.78;4.43;;;-0.40;99.90;;;;;;4991551;28;20238;-69
2021/01/08 06:56:37;;;;;;;7.95;5.10;;;-0.40;99.90;;;;;;4992113;28;20258;-70
2021/01/08 06:59:05;;;;;;;6.57;4.80;;;-0.40;99.90;;;;;;5004439;28;20222;-69
2021/01/08 07:01:57;;;;;;;8.68;5.25;;;-0.40;99.90;;;;;;5010794;28;20650;-70
2021/01/08 07:04:25;;;;;;;5.80;4.75;;;-0.40;99.90;;;;;;5011341;28;20223;-71
2021/01/08 07:06:53;;;;;;;5.65;4.50;;;-0.40;99.90;;;;;;5011211;28;20222;-71
2021/01/08 07:09:20;;;;;;;7.50;5.28;;;-0.40;99.90;;;;;;5010970;28;20202;-69
2021/01/08 07:11:54;;;;;;;6.43;5.32;;;-0.40;99.90;;;;;;4992653;28;20210;-71
2021/01/08 07:14:22;;;;;;;9.15;5.30;;;-0.40;99.90;;;;;;4991286;28;20257;-70
2021/01/08 07:16:51;;;;;;;6.95;4.85;;;-0.40;99.90;;;;;;4991462;28;20335;-70
2021/01/08 07:19:19;;;;;;;6.32;5.53;;;-0.40;99.90;;;;;;4990862;28;20226;-70
2021/01/08 07:21:48;;;;;;;7.28;5.53;;;-0.40;99.90;;;;;;4990901;28;20226;-70
2021/01/08 07:24:16;;;;;;;7.70;5.55;;;-0.40;99.90;;;;;;4990663;28;20611;-71
2021/01/08 07:26:43;;;;;;;8.30;5.13;;;-0.30;99.90;;;;;;4991518;28;20298;-71
2021/01/08 07:29:10;;;;;;;6.05;4.88;;;-0.40;99.90;;;;;;4990812;28;20199;-70
2021/01/08 07:31:38;;;;;;;6.40;4.88;;;-0.40;99.90;;;;;;4990576;28;20203;-70
2021/01/08 07:34:06;;;;;;;7.95;5.82;;;-0.30;99.90;;;;;;4990660;28;20235;-69
2021/01/08 07:36:33;;;;;;;7.35;5.47;;;-0.30;99.90;;;;;;4991071;28;20203;-70
2021/01/08 07:39:00;;;;;;;7.45;5.28;;;-0.30;99.90;;;;;;4990530;28;20278;-71
2021/01/08 07:41:38;;;;;;;7.65;5.75;;;-0.30;99.90;;;;;;4990758;28;20234;-70
2021/01/08 07:44:29;;;;;;;6.82;4.93;;;-0.30;99.90;;;;;;4990477;28;20227;-71
2021/01/08 07:46:56;;;;;;;6.85;5.55;;;-0.30;99.90;;;;;;4990766;28;20207;-70
2021/01/08 07:49:28;;;;;;;7.32;5.05;;;-0.20;99.90;;;;;;4990822;28;20203;-70
2021/01/08 07:51:55;;;;;;;7.45;5.32;;;-0.20;99.90;;;;;;4990227;28;20207;-70
2021/01/08 07:54:53;;;;;;;7.72;5.22;;;-0.30;99.90;;;;;;4990704;28;20227;-70
2021/01/08 07:57:19;;;;;;;7.80;4.95;;;-0.20;99.90;;;;;;4990662;28;20203;-71
2021/01/08 07:59:46;;;;;;;7.47;5.90;;;-0.20;99.90;;;;;;4996064;28;20234;-70
2021/01/08 08:02:12;;;;;;;6.18;4.68;;;-0.10;99.90;;;;;;5009116;28;20218;-71
2021/01/08 08:04:39;;;;;;;6.53;4.75;;;0.00;99.90;;;;;;5010414;28;20233;-70
2021/01/08 08:07:05;;;;;;;5.90;4.55;;;0.00;99.90;;;;;;5009099;28;20587;-70
2021/01/08 08:09:31;;;;;;;7.60;5.25;;;0.00;99.90;;;;;;5010130;28;20206;-70
2021/01/08 08:11:59;;;;;;;8.18;5.07;;;0.00;99.90;;;;;;5008857;28;20206;-71
2021/01/08 08:14:25;;;;;;;5.70;5.07;;;0.00;99.90;;;;;;5009857;28;20288;-71
2021/01/08 08:16:52;;;;;;;6.88;5.55;;;0.10;99.90;;;;;;5010230;28;20246;-70
2021/01/08 08:19:18;;;;;;;8.57;5.10;;;0.10;99.90;;;;;;5009645;28;20229;-71
2021/01/08 08:21:49;;;;;;;7.05;5.72;;;0.10;99.90;;;;;;5004163;28;20213;-70
2021/01/08 08:24:17;;;;;;;6.45;4.63;;;0.00;99.90;;;;;;4988789;28;20230;-69
2021/01/08 08:26:44;;;;;;;5.25;4.75;;;0.00;99.90;;;;;;4990691;28;20214;-70
2021/01/08 08:29:12;;;;;;;6.38;4.93;;;0.00;99.90;;;;;;4989557;28;20211;-69
2021/01/08 08:31:40;;;;;;;6.80;5.10;;;0.00;99.90;;;;;;4994210;28;20203;-70
2021/01/08 08:36:35;;;;;;;6.45;4.80;;;0.00;99.90;;;;;;4972505;28;20666;-72
2021/01/08 08:39:07;;;;;;;7.53;5.30;;;0.00;99.90;;;;;;4984660;28;20218;-72
2021/01/08 08:41:35;;;;;;;5.90;4.88;;;0.00;99.90;;;;;;4989845;28;20203;-72
2021/01/08 08:44:03;;;;;;;7.20;5.05;;;0.10;99.90;;;;;;4989527;28;20265;-72
2021/01/08 08:46:44;;;;;;;6.95;4.88;;;0.10;99.90;;;;;;4990063;28;20749;-72
2021/01/08 08:49:11;;;;;;;7.30;5.15;;;0.10;99.90;;;;;;4989325;28;20203;-70
2021/01/08 08:51:45;;;;;;;5.90;5.00;;;0.20;99.90;;;;;;4984958;28;20226;-71
2021/01/08 08:54:12;;;;;;;6.75;4.40;;;0.20;99.90;;;;;;4970346;28;20228;-71
2021/01/08 08:56:49;;;;;;;6.22;4.90;;;0.30;99.90;;;;;;4961298;28;20204;-71
2021/01/08 08:59:16;;;;;;;5.70;4.38;;;0.30;99.90;;;;;;4978101;28;20250;-71
2021/01/08 09:01:43;;;;;;;4.68;4.28;;;0.30;99.90;;;;;;4988591;28;20207;-72
2021/01/08 09:04:10;;;;;;;5.07;4.55;;;0.20;99.90;;;;;;4989773;28;20714;-70
2021/01/08 09:06:39;;;;;;;6.35;4.72;;;0.20;99.90;;;;;;4989503;28;20693;-72
2021/01/08 09:09:13;;;;;;;4.72;4.25;;;0.30;99.90;;;;;;4990047;28;20214;-72
2021/01/08 09:11:49;;;;;;;4.75;4.20;;;0.40;99.90;;;;;;4988849;28;20720;-72
2021/01/08 09:14:17;;;;;;;5.50;4.20;;;0.60;99.90;;;;;;4988979;28;20257;-72
2021/01/08 09:16:48;;;;;;;5.80;4.20;;;0.70;99.90;;;;;;4989212;28;20558;-72
2021/01/08 09:19:21;;;;;;;4.95;4.40;;;0.90;99.90;;;;;;4989182;28;20233;-71
2021/01/08 09:21:48;;;;;;;5.50;3.80;;;1.10;99.90;;;;;;4988876;28;20597;-71
2021/01/08 09:24:21;;;;;;;4.32;3.35;;;1.20;99.90;;;;;;4980342;28;20712;-72
2021/01/08 09:26:48;;;;;;;5.32;3.88;;;1.40;99.90;;;;;;4969627;28;20215;-71
2021/01/08 09:29:28;;;;;;;4.78;3.42;;;1.50;99.90;;;;;;4969688;28;20207;-71
2021/01/08 09:31:55;;;;;;;4.65;3.60;;;1.60;99.90;;;;;;4969278;28;20285;-72
2021/01/08 09:34:23;;;;;;;4.13;2.88;;;1.70;99.90;;;;;;4971398;28;20243;-71
2021/01/08 09:36:51;;;;;;;3.60;3.30;;;1.70;99.90;;;;;;4988873;28;20252;-72
2021/01/08 09:39:20;;;;;;;4.40;3.20;;;1.80;99.90;;;;;;5001376;28;20226;-72
2021/01/08 09:41:55;;;;;;;3.17;2.88;;;1.90;99.90;;;;;;5007492;28;20217;-71
2021/01/08 09:44:30;;;;;;;3.00;2.80;;;2.00;99.90;;;;;;5008603;28;20229;-71
2021/01/08 09:46:58;;;;;;;3.97;2.75;;;2.10;99.90;;;;;;5008225;28;20206;-71
2021/01/08 09:49:24;;;;;;;3.67;3.05;;;2.40;99.90;;;;;;5008675;28;20248;-72
2021/01/08 09:52:00;;;;;;;3.33;2.75;;;2.80;99.90;;;;;;5006500;28;20575;-72
2021/01/08 09:54:46;;;;;;;3.92;3.00;;;2.90;99.90;;;;;;5008623;28;20232;-71
2021/01/08 09:57:25;;;;;;;4.00;2.90;;;2.80;99.90;;;;;;5008698;28;20221;-71
2021/01/08 09:59:58;;;;;;;4.20;2.92;;;2.60;99.90;;;;;;5007972;28;20261;-70
2021/01/08 10:02:38;;;;;;;2.65;2.45;;;2.40;99.90;;;;;;5008310;28;20573;-71
2021/01/08 10:05:06;;;;;;;3.22;2.92;;;2.30;99.90;;;;;;4969477;28;20223;-71
2021/01/08 10:07:42;;;;;;;3.00;2.50;;;2.20;99.90;;;;;;4969995;28;20203;-71
2021/01/08 10:10:12;;;;;;;3.35;2.90;;;2.10;99.90;;;;;;4969751;28;20238;-71
2021/01/08 10:12:46;;;;;;;3.78;2.70;;;2.00;99.90;;;;;;4968436;28;20208;-71
2021/01/08 10:15:13;;;;;;;3.40;2.95;;;2.00;99.90;;;;;;4971679;28;20251;-73
2021/01/08 10:17:49;;;;;;;3.40;2.70;;;2.00;99.90;;;;;;4988580;28;20206;-72
2021/01/08 10:20:17;;;;;;;3.13;2.40;;;1.90;99.90;;;;;;4988824;28;20223;-73
2021/01/08 10:22:47;;;;;;;3.20;2.70;;;1.80;99.90;;;;;;4999269;28;20265;-72
2021/01/08 10:25:28;;;;;;;3.20;2.45;;;1.80;99.90;;;;;;5008432;28;20222;-72
2021/01/08 10:28:08;;;;;;;3.53;3.20;;;1.80;99.90;;;;;;5002843;28;20211;-72
2021/01/08 10:30:34;;;;;;;3.00;2.70;;;1.80;99.90;;;;;;4988937;28;20338;-72
2021/01/08 10:33:00;;;;;;;2.60;2.40;;;1.80;99.90;;;;;;4988394;28;20203;-72
2021/01/08 10:35:27;;;;;;;3.47;2.95;;;1.90;99.90;;;;;;4988392;28;20273;-72
2021/01/08 10:37:53;;;;;;;2.50;2.30;;;2.00;99.90;;;;;;4988797;28;20203;-73
2021/01/08 10:40:19;;;;;;;3.40;2.90;;;2.10;99.90;;;;;;4992847;28;20221;-72
2021/01/08 10:42:46;;;;;;;3.40;2.60;;;2.20;99.90;;;;;;5006976;28;20208;-72
2021/01/08 10:45:14;;;;;;;3.63;2.78;;;2.20;99.90;;;;;;5008019;28;20234;-70
2021/01/08 10:47:40;;;;;;;3.67;3.00;;;2.40;99.90;;;;;;5010420;28;20693;-72
2021/01/08 10:50:07;;;;;;;3.85;3.10;;;2.40;99.90;;;;;;5011709;28;20282;-72
2021/01/08 10:52:33;;;;;;;3.40;3.10;;;2.50;99.90;;;;;;5006734;28;20199;-72
2021/01/08 10:54:59;;;;;;;3.40;3.10;;;2.50;99.90;;;;;;4991830;28;20278;-71
2021/01/08 10:57:26;;;;;;;2.80;2.38;;;2.50;99.90;;;;;;4991868;28;20702;-71
2021/01/08 10:59:53;;;;;;;3.53;3.22;;;2.50;99.90;;;;;;4991582;28;20239;-72
2021/01/08 11:02:19;;;;;;;3.78;2.92;;;2.50;99.90;;;;;;4998915;28;20207;-72
2021/01/08 11:04:46;;;;;;;4.47;3.40;;;2.60;99.90;;;;;;5007967;28;20286;-72
2021/01/08 11:07:12;;;;;;;3.35;3.05;;;2.80;99.90;;;;;;4992708;28;20254;-71
2021/01/08 11:09:38;;;;;;;3.85;3.08;;;3.00;99.90;;;;;;4991726;28;20206;-71
2021/01/08 11:12:06;;;;;;;5.63;2.90;;;3.10;99.90;;;;;;4990864;28;20199;-71
2021/01/08 11:14:32;;;;;;;3.90;2.97;;;3.20;99.90;;;;;;4992096;28;20219;-72
2021/01/08 11:16:59;;;;;;;3.47;2.70;;;3.20;99.90;;;;;;4991088;28;20249;-71
2021/01/08 11:19:26;;;;;;;6.20;2.92;;;3.20;99.90;;;;;;4991666;28;20226;-72
2021/01/08 11:21:53;;;;;;;3.45;2.97;;;3.10;99.90;;;;;;4994331;28;20215;-72
2021/01/08 11:24:19;;;;;;;3.30;3.00;;;3.10;99.90;;;;;;5011149;28;20264;-70
2021/01/08 11:26:45;;;;;;;4.25;3.72;;;3.00;99.90;;;;;;5010703;28;20206;-70
2021/01/08 11:29:11;;;;;;;3.10;2.80;;;3.10;99.90;;;;;;5009194;28;20203;-71
2021/01/08 11:31:38;;;;;;;3.28;2.90;;;3.20;99.90;;;;;;4991901;28;20207;-72
2021/01/08 11:34:06;;;;;;;5.40;2.88;;;3.30;99.90;;;;;;5010813;28;20227;-72
2021/01/08 11:36:32;;;;;;;4.35;3.88;;;3.30;99.90;;;;;;5011928;28;20214;-71
2021/01/08 11:38:58;;;;;;;4.25;3.35;;;3.70;99.90;;;;;;5011844;28;20301;-71
2021/01/08 11:41:25;;;;;;;3.35;2.83;;;4.40;99.90;;;;;;5011381;28;20202;-71
2021/01/08 11:43:52;;;;;;;3.75;2.88;;;4.90;99.90;;;;;;5010837;28;20725;-72
2021/01/08 11:46:19;;;;;;;3.20;2.90;;;4.90;99.90;;;;;;5010622;28;20233;-72
2021/01/08 11:48:46;;;;;;;3.22;2.80;;;4.70;99.90;;;;;;5009888;28;20202;-72
2021/01/08 11:51:13;;;;;;;4.47;3.53;;;4.50;99.90;;;;;;5010469;28;20207;-71
2021/01/08 11:53:41;;;;;;;4.65;2.72;;;4.40;99.90;;;;;;5009695;28;20638;-72
2021/01/08 11:56:08;;;;;;;3.85;3.30;;;4.20;99.90;;;;;;4991548;28;20618;-72
2021/01/08 11:58:36;;;;;;;3.83;2.80;;;4.00;99.90;;;;;;4989828;28;20233;-72
2021/01/08 12:01:02;;;;;;;5.13;3.75;;;3.90;99.90;;;;;;4990338;28;20203;-71
2021/01/08 12:03:28;;;;;;;3.80;3.17;;;3.70;99.90;;;;;;5006658;28;20214;-71
2021/01/08 12:05:54;;;;;;;4.40;2.90;;;3.50;99.90;;;;;;5010159;28;20210;-71
2021/01/08 12:08:21;;;;;;;6.13;3.58;;;3.40;99.90;;;;;;5009451;28;20202;-71
2021/01/08 12:10:48;;;;;;;5.20;3.80;;;3.20;99.90;;;;;;5009877;28;20202;-70
2021/01/08 12:13:14;;;;;;;4.00;3.60;;;3.10;99.90;;;;;;5009601;28;20213;-69
2021/01/08 12:15:41;;;;;;;4.75;3.55;;;3.00;99.90;;;;;;5007348;28;20241;-72
2021/01/08 12:18:08;;;;;;;5.10;3.30;;;2.90;99.90;;;;;;4981133;28;20618;-71
2021/01/08 12:20:36;;;;;;;4.20;3.28;;;2.80;99.90;;;;;;4978769;28;20223;-70
2021/01/08 12:23:05;;;;;;;3.55;3.00;;;2.60;99.90;;;;;;4980385;28;20199;-73
2021/01/08 12:25:35;;;;;;;4.30;3.28;;;2.50;99.90;;;;;;4980963;28;20216;-71
2021/01/08 12:28:05;;;;;;;4.57;3.63;;;2.40;99.90;;;;;;4980059;28;20222;-71
2021/01/08 12:30:31;;;;;;;4.63;4.00;;;2.30;99.90;;;;;;4979023;28;20187;-70
2021/01/08 12:32:59;;;;;;;3.95;3.20;;;2.30;99.90;;;;;;4980675;28;20223;-71
2021/01/08 12:35:26;;;;;;;4.35;3.75;;;2.30;99.90;;;;;;4980195;28;20222;-70
2021/01/08 12:37:52;;;;;;;4.07;3.35;;;2.20;99.90;;;;;;4980623;28;20204;-70
2021/01/08 12:40:20;;;;;;;5.38;3.85;;;2.20;99.90;;;;;;4981586;28;20216;-71
2021/01/08 12:42:48;;;;;;;5.88;3.47;;;2.20;99.90;;;;;;4984096;28;20203;-71
2021/01/08 12:45:15;;;;;;;4.45;3.35;;;2.20;99.90;;;;;;4983979;28;20230;-71
2021/01/08 12:47:41;;;;;;;7.68;3.17;;;2.10;99.90;;;;;;4989702;28;20199;-72
2021/01/08 12:50:08;;;;;;;4.88;3.53;;;2.00;99.90;;;;;;4989904;28;20195;-71
2021/01/08 12:52:35;;;;;;;5.85;4.00;;;2.10;99.90;;;;;;4985524;28;20739;-70
2021/01/08 12:55:01;;;;;;;3.97;3.10;;;2.10;99.90;;;;;;4973002;28;20219;-73
2021/01/08 12:57:27;;;;;;;5.93;3.95;;;2.10;99.90;;;;;;4979729;28;20246;-70
2021/01/08 12:59:55;;;;;;;5.20;4.05;;;2.10;99.90;;;;;;4979891;28;20220;-70